Ulusoy-15 — TCUP4 — position and weather

sailwx.info

Track history (hours):
 
Tides and Currents Weather Stations Pressure Air Temp Water Temp Dewpoint Dewpoint Depression Visibility Wind Speed Wind Dir Waves Ship Positions

Ulusoy-15

Last reported at 2017-Nov-23 15:43 UTC. Time now 2017-Nov-24 15:11 UTC.
Position N 36°39' E 021°49'.

Length 208 m; draft 5.9 m.

Type: Cargo ship. MMSI: 271043165.

Date/timePositionNaut miles runAvg speedWind from/ knotsBaromVisibWave heightAir tempDewpointWater temp
2017-Nov-23 15:43N 36°39' E 021°49'3716.0
2017-Nov-23 13:24N 36°22' E 022°30'716.9
2017-Nov-23 12:58N 36°23' E 022°39'1916.8
2017-Nov-23 11:49N 36°25' E 023°03'817.2
2017-Nov-23 11:22N 36°25' E 023°12'717.3
2017-Nov-23 10:57N 36°28' E 023°20'817.4
2017-Nov-23 10:30N 36°32' E 023°28'917.5
2017-Nov-23 09:59N 36°37' E 023°38'917.4
2017-Nov-23 09:27N 36°42' E 023°47'817.3
2017-Nov-23 09:00N 36°46' E 023°56'917.4
2017-Nov-23 08:30N 36°51' E 024°05'917.4
2017-Nov-23 08:00N 36°56' E 024°14'816.9
2017-Nov-23 07:30N 37°00' E 024°23'917.1
2017-Nov-23 07:00N 37°05' E 024°32'917.0
2017-Nov-23 06:30N 37°10' E 024°40'816.9
2017-Nov-23 06:00N 37°15' E 024°49'817.0
2017-Nov-23 05:30N 37°20' E 024°57'816.9
2017-Nov-23 05:00N 37°25' E 025°06'917.2
2017-Nov-23 04:30N 37°31' E 025°14'  
2017-Nov-19 08:11N 44°13' E 013°56'316.7
2017-Nov-19 08:00N 44°16' E 013°54'816.6
2017-Nov-19 07:30N 44°23' E 013°48'816.6
2017-Nov-19 07:01N 44°30' E 013°42'816.5
2017-Nov-19 06:31N 44°37' E 013°35'816.6
2017-Nov-19 06:01N 44°44' E 013°29'816.7
2017-Nov-19 05:31N 44°51' E 013°23'816.4
2017-Nov-19 05:00N 44°58' E 013°17'816.3
2017-Nov-19 04:30N 45°05' E 013°11'816.4
2017-Nov-19 04:00N 45°12' E 013°05'816.7
2017-Nov-19 03:30N 45°20' E 013°03'816.7
2017-Nov-19 03:00N 45°27' E 013°09'917.1
2017-Nov-19 02:31N 45°33' E 013°18'816.7
2017-Nov-19 02:01N 45°37' E 013°29'815.8
2017-Nov-19 01:30N 45°39' E 013°40'4 0.3
2017-Nov-18 11:15N 45°38' E 013°46'0 0.0
2017-Nov-18 11:00N 45°38' E 013°46'0 0.7
2017-Nov-18 10:30N 45°38' E 013°45'5 9.7
2017-Nov-18 10:00N 45°38' E 013°38'815.8
2017-Nov-18 09:30N 45°34' E 013°29'816.2
2017-Nov-18 09:00N 45°28' E 013°20'816.1
2017-Nov-18 08:30N 45°23' E 013°12'816.5
2017-Nov-18 08:00N 45°15' E 013°15'917.1
2017-Nov-18 07:30N 45°06' E 013°19'917.0
2017-Nov-18 07:00N 44°58' E 013°22'816.9
2017-Nov-18 06:30N 44°51' E 013°28'817.0
2017-Nov-18 06:00N 44°44' E 013°34'816.8
2017-Nov-18 05:30N 44°37' E 013°40'816.9
2017-Nov-18 05:00N 44°29' E 013°47'816.8
2017-Nov-18 04:30N 44°22' E 013°53'917.1
2017-Nov-18 04:00N 44°15' E 013°60'64614.3
2017-Nov-16 06:48N 37°15' E 024°48'516.0
2017-Nov-16 06:31N 37°17' E 024°52'816.0
2017-Nov-16 06:01N 37°22' E 025°01'816.1
2017-Nov-16 05:31N 37°27' E 025°08'816.6
2017-Nov-16 05:01N 37°32' E 025°17'816.1
2017-Nov-16 04:31N 37°38' E 025°24'815.5
2017-Nov-16 04:01N 37°43' E 025°31'815.8
2017-Nov-16 03:31N 37°48' E 025°38'3 0.1
2017-Nov-14 07:26N 37°50' E 025°42'817.8
2017-Nov-14 07:00N 37°45' E 025°35'917.7
2017-Nov-14 06:30N 37°39' E 025°26'917.5
2017-Nov-14 06:00N 37°33' E 025°18'917.5
2017-Nov-14 05:30N 37°27' E 025°10'1017.3
2017-Nov-14 04:56N 37°21' E 025°00'717.4
2017-Nov-14 04:30N 37°17' E 024°53'  
Track history (hours):
 
Tides and Currents Weather Stations Pressure Air Temp Water Temp Dewpoint Dewpoint Depression Visibility Wind Speed Wind Dir Waves Ship Positions

Ulusoy-15

Last reported at 2017-Nov-23 15:43 UTC. Time now 2017-Nov-24 15:11 UTC.
Position N 36°39' E 021°49'.

Length 208 m; draft 5.9 m.

Type: Cargo ship. MMSI: 271043165.

Date/timePositionNaut miles runAvg speedWind from/ knotsBaromVisibWave heightAir tempDewpointWater temp
2017-Nov-23 15:43N 36°39' E 021°49'3716.0
2017-Nov-23 13:24N 36°22' E 022°30'716.9
2017-Nov-23 12:58N 36°23' E 022°39'1916.8
2017-Nov-23 11:49N 36°25' E 023°03'817.2
2017-Nov-23 11:22N 36°25' E 023°12'717.3
2017-Nov-23 10:57N 36°28' E 023°20'817.4
2017-Nov-23 10:30N 36°32' E 023°28'917.5
2017-Nov-23 09:59N 36°37' E 023°38'917.4
2017-Nov-23 09:27N 36°42' E 023°47'817.3
2017-Nov-23 09:00N 36°46' E 023°56'917.4
2017-Nov-23 08:30N 36°51' E 024°05'917.4
2017-Nov-23 08:00N 36°56' E 024°14'816.9
2017-Nov-23 07:30N 37°00' E 024°23'917.1
2017-Nov-23 07:00N 37°05' E 024°32'917.0
2017-Nov-23 06:30N 37°10' E 024°40'816.9
2017-Nov-23 06:00N 37°15' E 024°49'817.0
2017-Nov-23 05:30N 37°20' E 024°57'816.9
2017-Nov-23 05:00N 37°25' E 025°06'917.2
2017-Nov-23 04:30N 37°31' E 025°14'  
2017-Nov-19 08:11N 44°13' E 013°56'316.7
2017-Nov-19 08:00N 44°16' E 013°54'816.6
2017-Nov-19 07:30N 44°23' E 013°48'816.6
2017-Nov-19 07:01N 44°30' E 013°42'816.5
2017-Nov-19 06:31N 44°37' E 013°35'816.6
2017-Nov-19 06:01N 44°44' E 013°29'816.7
2017-Nov-19 05:31N 44°51' E 013°23'816.4
2017-Nov-19 05:00N 44°58' E 013°17'816.3
2017-Nov-19 04:30N 45°05' E 013°11'816.4
2017-Nov-19 04:00N 45°12' E 013°05'816.7
2017-Nov-19 03:30N 45°20' E 013°03'816.7
2017-Nov-19 03:00N 45°27' E 013°09'917.1
2017-Nov-19 02:31N 45°33' E 013°18'816.7
2017-Nov-19 02:01N 45°37' E 013°29'815.8
2017-Nov-19 01:30N 45°39' E 013°40'4 0.3
2017-Nov-18 11:15N 45°38' E 013°46'0 0.0
2017-Nov-18 11:00N 45°38' E 013°46'0 0.7
2017-Nov-18 10:30N 45°38' E 013°45'5 9.7
2017-Nov-18 10:00N 45°38' E 013°38'815.8
2017-Nov-18 09:30N 45°34' E 013°29'816.2
2017-Nov-18 09:00N 45°28' E 013°20'816.1
2017-Nov-18 08:30N 45°23' E 013°12'816.5
2017-Nov-18 08:00N 45°15' E 013°15'917.1
2017-Nov-18 07:30N 45°06' E 013°19'917.0
2017-Nov-18 07:00N 44°58' E 013°22'816.9
2017-Nov-18 06:30N 44°51' E 013°28'817.0
2017-Nov-18 06:00N 44°44' E 013°34'816.8
2017-Nov-18 05:30N 44°37' E 013°40'816.9
2017-Nov-18 05:00N 44°29' E 013°47'816.8
2017-Nov-18 04:30N 44°22' E 013°53'917.1
2017-Nov-18 04:00N 44°15' E 013°60'64614.3
2017-Nov-16 06:48N 37°15' E 024°48'516.0
2017-Nov-16 06:31N 37°17' E 024°52'816.0
2017-Nov-16 06:01N 37°22' E 025°01'816.1
2017-Nov-16 05:31N 37°27' E 025°08'816.6
2017-Nov-16 05:01N 37°32' E 025°17'816.1
2017-Nov-16 04:31N 37°38' E 025°24'815.5
2017-Nov-16 04:01N 37°43' E 025°31'815.8
2017-Nov-16 03:31N 37°48' E 025°38'3 0.1
2017-Nov-14 07:26N 37°50' E 025°42'817.8
2017-Nov-14 07:00N 37°45' E 025°35'917.7
2017-Nov-14 06:30N 37°39' E 025°26'917.5
2017-Nov-14 06:00N 37°33' E 025°18'917.5
2017-Nov-14 05:30N 37°27' E 025°10'1017.3
2017-Nov-14 04:56N 37°21' E 025°00'717.4
2017-Nov-14 04:30N 37°17' E 024°53'  

Dump ship's entire track history